Swartzville, Pennsylvania
Current Conditions -  °F | °C
As of 10:54 PM on Saturday 25 Oct 2014 (Local Time) from KRDG Reporting Station
Few Clouds Few Clouds  
Wind Chill: 60°   Ceiling: Unl
Heat Index: 60°   Visibility: 10mi
Dew Point: 45°   Wind: 7mph
Humidity: 57%   Direction: 230°SW
Pressure: 29.62"   Gusts: NA
Location:  40.2731°N, 76.0902°W
Report Text: KRDG 260254Z AUTO 23006KT 10SM FEW085 16/07 A2962 RMK AO2 SLP035 T01560072 56014
Loading
Personal Weather Stations






























Interactive Weather Map
Tropical Storm Tracking
New forecast layout! Learn more

10-Day Weather Forecast

Advertisements
Track Severe Weather on mobile